sensor_id;sensor_type;location;lat;lon;timestamp;temperature;humidity
27016;DHT22;14557;0.000;0.000;2023-03-31T00:00:33;21.80;69.30
27016;DHT22;14557;0.000;0.000;2023-03-31T00:02:59;21.90;69.30
27016;DHT22;14557;0.000;0.000;2023-03-31T00:05:25;21.90;69.20
27016;DHT22;14557;0.000;0.000;2023-03-31T00:07:54;21.80;68.80
27016;DHT22;14557;0.000;0.000;2023-03-31T00:10:26;21.80;68.60
27016;DHT22;14557;0.000;0.000;2023-03-31T00:12:52;21.80;68.60
27016;DHT22;14557;0.000;0.000;2023-03-31T00:15:18;21.80;68.90
27016;DHT22;14557;0.000;0.000;2023-03-31T00:17:43;21.80;69.00
27016;DHT22;14557;0.000;0.000;2023-03-31T00:20:09;21.80;68.80
27016;DHT22;14557;0.000;0.000;2023-03-31T00:22:37;21.80;68.90
27016;DHT22;14557;0.000;0.000;2023-03-31T00:25:03;21.80;68.80
27016;DHT22;14557;0.000;0.000;2023-03-31T00:27:29;21.80;68.50
27016;DHT22;14557;0.000;0.000;2023-03-31T00:29:55;21.80;68.40
27016;DHT22;14557;0.000;0.000;2023-03-31T00:32:20;21.80;68.20
27016;DHT22;14557;0.000;0.000;2023-03-31T00:34:46;21.80;68.20
27016;DHT22;14557;0.000;0.000;2023-03-31T00:37:12;21.70;68.30
27016;DHT22;14557;0.000;0.000;2023-03-31T00:39:39;21.70;68.40
27016;DHT22;14557;0.000;0.000;2023-03-31T00:42:05;21.70;68.20
27016;DHT22;14557;0.000;0.000;2023-03-31T00:44:34;21.70;68.00
27016;DHT22;14557;0.000;0.000;2023-03-31T00:47:11;21.70;67.80
27016;DHT22;14557;0.000;0.000;2023-03-31T00:49:40;21.70;67.80
27016;DHT22;14557;0.000;0.000;2023-03-31T00:52:14;21.70;67.80
27016;DHT22;14557;0.000;0.000;2023-03-31T00:54:41;21.70;67.70
27016;DHT22;14557;0.000;0.000;2023-03-31T00:57:07;21.60;68.50
27016;DHT22;14557;0.000;0.000;2023-03-31T00:59:36;21.70;68.70
27016;DHT22;14557;0.000;0.000;2023-03-31T01:02:02;21.60;68.50
27016;DHT22;14557;0.000;0.000;2023-03-31T01:04:38;21.70;68.80
27016;DHT22;14557;0.000;0.000;2023-03-31T01:07:07;21.60;68.10
27016;DHT22;14557;0.000;0.000;2023-03-31T01:09:36;21.60;68.20
27016;DHT22;14557;0.000;0.000;2023-03-31T01:12:04;21.70;68.30
27016;DHT22;14557;0.000;0.000;2023-03-31T01:14:30;21.60;68.00
27016;DHT22;14557;0.000;0.000;2023-03-31T01:16:55;21.60;68.00
27016;DHT22;14557;0.000;0.000;2023-03-31T01:19:47;21.60;68.20
27016;DHT22;14557;0.000;0.000;2023-03-31T01:27:58;21.60;68.30
27016;DHT22;14557;0.000;0.000;2023-03-31T01:33:02;21.60;68.10
27016;DHT22;14557;0.000;0.000;2023-03-31T01:38:11;21.60;68.00
27016;DHT22;14557;0.000;0.000;2023-03-31T01:48:30;21.50;67.80
27016;DHT22;14557;0.000;0.000;2023-03-31T01:50:55;21.50;67.80
27016;DHT22;14557;0.000;0.000;2023-03-31T01:53:32;21.50;67.70
27016;DHT22;14557;0.000;0.000;2023-03-31T01:56:05;21.50;67.60
27016;DHT22;14557;0.000;0.000;2023-03-31T01:58:35;21.50;67.50
27016;DHT22;14557;0.000;0.000;2023-03-31T02:01:04;21.40;67.90
27016;DHT22;14557;0.000;0.000;2023-03-31T02:03:32;21.40;67.90
27016;DHT22;14557;0.000;0.000;2023-03-31T02:06:02;21.40;67.50
27016;DHT22;14557;0.000;0.000;2023-03-31T02:08:30;21.40;68.00
27016;DHT22;14557;0.000;0.000;2023-03-31T02:10:59;21.40;67.80
27016;DHT22;14557;0.000;0.000;2023-03-31T02:13:25;21.40;68.00
27016;DHT22;14557;0.000;0.000;2023-03-31T02:15:53;21.40;68.10
27016;DHT22;14557;0.000;0.000;2023-03-31T02:18:22;21.40;67.80
27016;DHT22;14557;0.000;0.000;2023-03-31T02:20:50;21.40;67.60
27016;DHT22;14557;0.000;0.000;2023-03-31T02:23:18;21.30;67.80
27016;DHT22;14557;0.000;0.000;2023-03-31T02:25:46;21.30;67.90
27016;DHT22;14557;0.000;0.000;2023-03-31T02:28:14;21.30;67.90
27016;DHT22;14557;0.000;0.000;2023-03-31T02:33:23;21.30;67.80
27016;DHT22;14557;0.000;0.000;2023-03-31T02:35:49;21.30;67.90
27016;DHT22;14557;0.000;0.000;2023-03-31T02:38:15;21.30;67.70
27016;DHT22;14557;0.000;0.000;2023-03-31T02:40:41;21.30;67.60
27016;DHT22;14557;0.000;0.000;2023-03-31T02:43:07;21.30;67.50
27016;DHT22;14557;0.000;0.000;2023-03-31T02:50:50;21.30;67.60
27016;DHT22;14557;0.000;0.000;2023-03-31T03:01:32;21.20;68.00
27016;DHT22;14557;0.000;0.000;2023-03-31T03:09:06;21.20;66.90
27016;DHT22;14557;0.000;0.000;2023-03-31T03:16:40;21.20;67.10
27016;DHT22;14557;0.000;0.000;2023-03-31T03:19:07;21.20;66.80
27016;DHT22;14557;0.000;0.000;2023-03-31T03:21:33;21.20;66.70
27016;DHT22;14557;0.000;0.000;2023-03-31T03:23:59;21.20;66.50
27016;DHT22;14557;0.000;0.000;2023-03-31T03:26:26;21.20;66.70
27016;DHT22;14557;0.000;0.000;2023-03-31T03:28:55;21.20;66.90
27016;DHT22;14557;0.000;0.000;2023-03-31T03:31:20;21.10;66.90
27016;DHT22;14557;0.000;0.000;2023-03-31T03:33:48;21.10;66.70
27016;DHT22;14557;0.000;0.000;2023-03-31T03:36:14;21.10;66.70
27016;DHT22;14557;0.000;0.000;2023-03-31T03:38:40;21.10;66.80
27016;DHT22;14557;0.000;0.000;2023-03-31T03:41:05;21.10;66.90
27016;DHT22;14557;0.000;0.000;2023-03-31T03:43:31;21.10;67.00
27016;DHT22;14557;0.000;0.000;2023-03-31T03:45:56;21.10;66.90
27016;DHT22;14557;0.000;0.000;2023-03-31T03:48:22;21.10;66.80
27016;DHT22;14557;0.000;0.000;2023-03-31T03:50:47;21.10;66.80
27016;DHT22;14557;0.000;0.000;2023-03-31T03:53:13;21.10;66.70
27016;DHT22;14557;0.000;0.000;2023-03-31T03:55:39;21.10;66.70
27016;DHT22;14557;0.000;0.000;2023-03-31T03:58:04;21.10;66.60
27016;DHT22;14557;0.000;0.000;2023-03-31T04:00:30;21.10;66.60
27016;DHT22;14557;0.000;0.000;2023-03-31T04:02:56;21.10;66.50
27016;DHT22;14557;0.000;0.000;2023-03-31T04:05:21;21.10;66.60
27016;DHT22;14557;0.000;0.000;2023-03-31T04:07:47;21.10;66.50
27016;DHT22;14557;0.000;0.000;2023-03-31T04:10:12;21.10;66.40
27016;DHT22;14557;0.000;0.000;2023-03-31T04:12:38;21.10;66.40
27016;DHT22;14557;0.000;0.000;2023-03-31T04:15:04;21.10;66.30
27016;DHT22;14557;0.000;0.000;2023-03-31T04:17:29;21.10;66.20
27016;DHT22;14557;0.000;0.000;2023-03-31T04:20:08;21.10;66.20
27016;DHT22;14557;0.000;0.000;2023-03-31T04:22:34;21.10;66.10
27016;DHT22;14557;0.000;0.000;2023-03-31T04:25:08;21.10;65.90
27016;DHT22;14557;0.000;0.000;2023-03-31T04:27:34;21.10;65.90
27016;DHT22;14557;0.000;0.000;2023-03-31T04:30:00;21.00;65.50
27016;DHT22;14557;0.000;0.000;2023-03-31T04:32:26;21.00;65.30
27016;DHT22;14557;0.000;0.000;2023-03-31T04:34:52;21.00;65.30
27016;DHT22;14557;0.000;0.000;2023-03-31T04:37:28;21.00;65.30
27016;DHT22;14557;0.000;0.000;2023-03-31T04:40:01;21.00;65.20
27016;DHT22;14557;0.000;0.000;2023-03-31T04:42:34;21.00;65.20
27016;DHT22;14557;0.000;0.000;2023-03-31T04:45:00;21.00;65.10
27016;DHT22;14557;0.000;0.000;2023-03-31T04:47:26;20.90;65.10
27016;DHT22;14557;0.000;0.000;2023-03-31T04:49:51;20.90;65.00
27016;DHT22;14557;0.000;0.000;2023-03-31T04:52:17;20.90;64.90
27016;DHT22;14557;0.000;0.000;2023-03-31T04:54:42;20.90;64.90
27016;DHT22;14557;0.000;0.000;2023-03-31T04:57:08;20.90;64.80
27016;DHT22;14557;0.000;0.000;2023-03-31T04:59:33;20.90;64.80
27016;DHT22;14557;0.000;0.000;2023-03-31T05:01:59;20.90;64.80
27016;DHT22;14557;0.000;0.000;2023-03-31T05:04:25;20.90;64.70
27016;DHT22;14557;0.000;0.000;2023-03-31T05:06:50;20.90;64.70
27016;DHT22;14557;0.000;0.000;2023-03-31T05:09:16;20.90;64.60
27016;DHT22;14557;0.000;0.000;2023-03-31T05:11:42;20.90;64.70
27016;DHT22;14557;0.000;0.000;2023-03-31T05:14:07;20.90;64.60
27016;DHT22;14557;0.000;0.000;2023-03-31T05:16:33;20.80;64.50
27016;DHT22;14557;0.000;0.000;2023-03-31T05:18:58;20.80;64.40
27016;DHT22;14557;0.000;0.000;2023-03-31T05:21:24;20.80;64.50
27016;DHT22;14557;0.000;0.000;2023-03-31T05:23:51;20.80;64.50
27016;DHT22;14557;0.000;0.000;2023-03-31T05:26:17;20.80;64.40
27016;DHT22;14557;0.000;0.000;2023-03-31T05:28:43;20.80;64.50
27016;DHT22;14557;0.000;0.000;2023-03-31T05:31:09;20.80;64.30
27016;DHT22;14557;0.000;0.000;2023-03-31T05:33:35;20.80;64.30
27016;DHT22;14557;0.000;0.000;2023-03-31T05:36:12;20.80;64.30
27016;DHT22;14557;0.000;0.000;2023-03-31T05:38:38;20.80;64.30
27016;DHT22;14557;0.000;0.000;2023-03-31T05:41:04;20.80;64.30
27016;DHT22;14557;0.000;0.000;2023-03-31T05:43:31;20.70;64.20
27016;DHT22;14557;0.000;0.000;2023-03-31T05:45:56;20.70;64.20
27016;DHT22;14557;0.000;0.000;2023-03-31T05:48:22;20.70;64.20
27016;DHT22;14557;0.000;0.000;2023-03-31T05:50:47;20.70;64.20
27016;DHT22;14557;0.000;0.000;2023-03-31T05:53:13;20.70;64.20
27016;DHT22;14557;0.000;0.000;2023-03-31T05:55:39;20.70;64.20
27016;DHT22;14557;0.000;0.000;2023-03-31T05:58:05;20.70;64.10
27016;DHT22;14557;0.000;0.000;2023-03-31T06:00:31;20.70;64.20
27016;DHT22;14557;0.000;0.000;2023-03-31T06:02:57;20.70;64.20
27016;DHT22;14557;0.000;0.000;2023-03-31T06:05:23;20.70;64.20
27016;DHT22;14557;0.000;0.000;2023-03-31T06:07:51;20.70;64.10
27016;DHT22;14557;0.000;0.000;2023-03-31T06:10:17;20.70;64.80
27016;DHT22;14557;0.000;0.000;2023-03-31T06:12:42;20.70;69.60
27016;DHT22;14557;0.000;0.000;2023-03-31T06:15:08;20.70;69.60
27016;DHT22;14557;0.000;0.000;2023-03-31T06:17:34;20.70;68.40
27016;DHT22;14557;0.000;0.000;2023-03-31T06:19:59;20.60;67.50
27016;DHT22;14557;0.000;0.000;2023-03-31T06:22:25;20.70;67.00
27016;DHT22;14557;0.000;0.000;2023-03-31T06:24:50;20.60;66.50
27016;DHT22;14557;0.000;0.000;2023-03-31T06:27:16;20.60;66.20
27016;DHT22;14557;0.000;0.000;2023-03-31T06:29:41;20.60;66.80
27016;DHT22;14557;0.000;0.000;2023-03-31T06:32:07;20.60;65.90
27016;DHT22;14557;0.000;0.000;2023-03-31T06:34:32;20.60;65.70
27016;DHT22;14557;0.000;0.000;2023-03-31T06:36:58;20.60;65.50
27016;DHT22;14557;0.000;0.000;2023-03-31T06:39:23;20.60;65.40
27016;DHT22;14557;0.000;0.000;2023-03-31T06:41:49;20.60;65.30
27016;DHT22;14557;0.000;0.000;2023-03-31T06:44:15;20.60;65.30
27016;DHT22;14557;0.000;0.000;2023-03-31T06:46:41;20.60;65.20
27016;DHT22;14557;0.000;0.000;2023-03-31T06:49:06;20.60;65.10
27016;DHT22;14557;0.000;0.000;2023-03-31T06:51:32;20.60;65.10
27016;DHT22;14557;0.000;0.000;2023-03-31T06:53:58;20.60;65.00
27016;DHT22;14557;0.000;0.000;2023-03-31T06:56:23;20.50;64.90
27016;DHT22;14557;0.000;0.000;2023-03-31T06:58:49;20.60;67.90
27016;DHT22;14557;0.000;0.000;2023-03-31T07:01:14;20.60;66.60
27016;DHT22;14557;0.000;0.000;2023-03-31T07:03:40;20.60;65.80
27016;DHT22;14557;0.000;0.000;2023-03-31T07:06:06;20.60;65.60
27016;DHT22;14557;0.000;0.000;2023-03-31T07:08:31;20.60;65.40
27016;DHT22;14557;0.000;0.000;2023-03-31T07:10:57;20.60;65.10
27016;DHT22;14557;0.000;0.000;2023-03-31T07:13:23;20.50;65.00
27016;DHT22;14557;0.000;0.000;2023-03-31T07:15:49;20.50;64.90
27016;DHT22;14557;0.000;0.000;2023-03-31T07:18:15;20.60;65.40
27016;DHT22;14557;0.000;0.000;2023-03-31T07:20:41;20.70;73.90
27016;DHT22;14557;0.000;0.000;2023-03-31T07:23:07;20.70;74.10
27016;DHT22;14557;0.000;0.000;2023-03-31T07:25:33;20.80;69.90
27016;DHT22;14557;0.000;0.000;2023-03-31T07:27:59;20.80;69.60
27016;DHT22;14557;0.000;0.000;2023-03-31T07:30:25;20.70;68.60
27016;DHT22;14557;0.000;0.000;2023-03-31T07:32:51;20.70;68.10
27016;DHT22;14557;0.000;0.000;2023-03-31T07:35:17;20.70;67.40
27016;DHT22;14557;0.000;0.000;2023-03-31T07:37:44;20.80;69.90
27016;DHT22;14557;0.000;0.000;2023-03-31T07:40:12;20.80;71.40
27016;DHT22;14557;0.000;0.000;2023-03-31T07:42:39;20.90;71.50
27016;DHT22;14557;0.000;0.000;2023-03-31T07:45:06;21.10;72.00
27016;DHT22;14557;0.000;0.000;2023-03-31T07:47:31;21.20;69.60
27016;DHT22;14557;0.000;0.000;2023-03-31T07:49:57;21.50;68.40
27016;DHT22;14557;0.000;0.000;2023-03-31T07:52:23;21.40;68.20
27016;DHT22;14557;0.000;0.000;2023-03-31T07:54:49;21.30;68.50
27016;DHT22;14557;0.000;0.000;2023-03-31T07:57:15;21.20;68.10
27016;DHT22;14557;0.000;0.000;2023-03-31T07:59:44;21.10;67.70
27016;DHT22;14557;0.000;0.000;2023-03-31T08:02:11;21.10;67.50
27016;DHT22;14557;0.000;0.000;2023-03-31T08:04:36;21.00;67.30
27016;DHT22;14557;0.000;0.000;2023-03-31T08:07:02;21.00;67.00
27016;DHT22;14557;0.000;0.000;2023-03-31T08:09:29;21.00;66.50
27016;DHT22;14557;0.000;0.000;2023-03-31T08:11:54;21.00;66.90
27016;DHT22;14557;0.000;0.000;2023-03-31T08:14:20;21.00;66.90
27016;DHT22;14557;0.000;0.000;2023-03-31T08:16:45;21.00;66.30
27016;DHT22;14557;0.000;0.000;2023-03-31T08:19:11;21.00;66.00
27016;DHT22;14557;0.000;0.000;2023-03-31T08:21:36;21.00;70.50
27016;DHT22;14557;0.000;0.000;2023-03-31T08:24:02;21.00;72.20
27016;DHT22;14557;0.000;0.000;2023-03-31T08:26:27;21.10;72.90
27016;DHT22;14557;0.000;0.000;2023-03-31T08:28:54;21.10;70.50
27016;DHT22;14557;0.000;0.000;2023-03-31T08:31:22;21.00;69.90
27016;DHT22;14557;0.000;0.000;2023-03-31T08:33:48;21.00;70.00
27016;DHT22;14557;0.000;0.000;2023-03-31T08:36:13;21.00;68.50
27016;DHT22;14557;0.000;0.000;2023-03-31T08:38:40;21.00;70.10
27016;DHT22;14557;0.000;0.000;2023-03-31T08:43:40;21.10;70.80
27016;DHT22;14557;0.000;0.000;2023-03-31T08:46:09;21.10;68.90
27016;DHT22;14557;0.000;0.000;2023-03-31T08:48:37;21.10;68.80
27016;DHT22;14557;0.000;0.000;2023-03-31T08:51:22;21.20;78.50
27016;DHT22;14557;0.000;0.000;2023-03-31T08:53:51;21.20;73.00
27016;DHT22;14557;0.000;0.000;2023-03-31T08:56:20;21.20;71.70
27016;DHT22;14557;0.000;0.000;2023-03-31T08:58:48;21.20;69.80
27016;DHT22;14557;0.000;0.000;2023-03-31T09:06:42;21.10;68.10
27016;DHT22;14557;0.000;0.000;2023-03-31T09:09:24;21.10;67.50
27016;DHT22;14557;0.000;0.000;2023-03-31T09:11:55;21.10;67.10
27016;DHT22;14557;0.000;0.000;2023-03-31T09:14:28;21.00;66.80
27016;DHT22;14557;0.000;0.000;2023-03-31T09:19:29;21.00;66.50
27016;DHT22;14557;0.000;0.000;2023-03-31T09:21:56;21.00;66.30
27016;DHT22;14557;0.000;0.000;2023-03-31T09:24:26;21.00;66.10
27016;DHT22;14557;0.000;0.000;2023-03-31T09:26:57;21.00;66.30
27016;DHT22;14557;0.000;0.000;2023-03-31T09:31:54;21.00;66.60
27016;DHT22;14557;0.000;0.000;2023-03-31T09:34:23;21.10;66.80
27016;DHT22;14557;0.000;0.000;2023-03-31T09:36:49;21.10;66.30
27016;DHT22;14557;0.000;0.000;2023-03-31T09:39:15;21.00;65.10
27016;DHT22;14557;0.000;0.000;2023-03-31T09:41:43;21.00;64.10
27016;DHT22;14557;0.000;0.000;2023-03-31T09:44:15;21.00;63.40
27016;DHT22;14557;0.000;0.000;2023-03-31T09:46:45;21.00;62.60
27016;DHT22;14557;0.000;0.000;2023-03-31T09:49:14;20.90;61.70
27016;DHT22;14557;0.000;0.000;2023-03-31T09:51:42;20.90;61.30
27016;DHT22;14557;0.000;0.000;2023-03-31T09:54:21;20.80;61.00
27016;DHT22;14557;0.000;0.000;2023-03-31T09:56:49;20.80;61.00
27016;DHT22;14557;0.000;0.000;2023-03-31T09:59:21;20.70;60.90
27016;DHT22;14557;0.000;0.000;2023-03-31T10:01:50;20.70;60.90
27016;DHT22;14557;0.000;0.000;2023-03-31T10:06:45;20.60;61.20
27016;DHT22;14557;0.000;0.000;2023-03-31T10:09:11;20.60;61.00
27016;DHT22;14557;0.000;0.000;2023-03-31T10:11:37;20.60;61.00
27016;DHT22;14557;0.000;0.000;2023-03-31T10:14:12;20.50;61.20
27016;DHT22;14557;0.000;0.000;2023-03-31T10:19:11;20.10;64.80
27016;DHT22;14557;0.000;0.000;2023-03-31T10:21:38;20.20;65.00
27016;DHT22;14557;0.000;0.000;2023-03-31T10:24:07;20.30;64.70
27016;DHT22;14557;0.000;0.000;2023-03-31T10:26:32;20.30;63.90
27016;DHT22;14557;0.000;0.000;2023-03-31T10:28:58;20.40;63.50
27016;DHT22;14557;0.000;0.000;2023-03-31T10:31:24;20.40;65.00
27016;DHT22;14557;0.000;0.000;2023-03-31T10:33:50;20.50;64.40
27016;DHT22;14557;0.000;0.000;2023-03-31T10:36:19;20.50;63.80
27016;DHT22;14557;0.000;0.000;2023-03-31T10:38:45;20.50;63.70
27016;DHT22;14557;0.000;0.000;2023-03-31T10:41:16;20.50;64.20
27016;DHT22;14557;0.000;0.000;2023-03-31T10:43:43;20.50;64.00
27016;DHT22;14557;0.000;0.000;2023-03-31T10:46:12;20.50;63.90
27016;DHT22;14557;0.000;0.000;2023-03-31T10:48:38;20.50;64.50
27016;DHT22;14557;0.000;0.000;2023-03-31T10:51:15;20.50;65.80
27016;DHT22;14557;0.000;0.000;2023-03-31T10:53:43;20.60;67.90
27016;DHT22;14557;0.000;0.000;2023-03-31T10:56:14;20.60;66.20
27016;DHT22;14557;0.000;0.000;2023-03-31T10:58:51;20.60;65.70
27016;DHT22;14557;0.000;0.000;2023-03-31T11:07:08;20.70;66.70
27016;DHT22;14557;0.000;0.000;2023-03-31T11:09:46;20.70;68.40
27016;DHT22;14557;0.000;0.000;2023-03-31T11:15:22;20.90;71.40
27016;DHT22;14557;0.000;0.000;2023-03-31T11:20:31;21.00;70.20
27016;DHT22;14557;0.000;0.000;2023-03-31T11:30:55;21.00;70.10
27016;DHT22;14557;0.000;0.000;2023-03-31T11:36:10;21.00;69.80
27016;DHT22;14557;0.000;0.000;2023-03-31T11:41:09;21.00;69.60
27016;DHT22;14557;0.000;0.000;2023-03-31T11:44:18;21.00;69.50
27016;DHT22;14557;0.000;0.000;2023-03-31T11:46:29;21.00;75.90
27016;DHT22;14557;0.000;0.000;2023-03-31T11:51:46;21.10;75.40
27016;DHT22;14557;0.000;0.000;2023-03-31T11:54:21;21.10;73.00
27016;DHT22;14557;0.000;0.000;2023-03-31T11:56:48;21.10;71.20
27016;DHT22;14557;0.000;0.000;2023-03-31T11:59:15;21.10;75.40
27016;DHT22;14557;0.000;0.000;2023-03-31T12:01:51;21.10;72.90
27016;DHT22;14557;0.000;0.000;2023-03-31T12:09:59;21.00;70.90
27016;DHT22;14557;0.000;0.000;2023-03-31T12:12:31;21.00;72.80
27016;DHT22;14557;0.000;0.000;2023-03-31T12:15:02;21.00;71.90
27016;DHT22;14557;0.000;0.000;2023-03-31T12:17:30;21.00;69.90
27016;DHT22;14557;0.000;0.000;2023-03-31T12:19:57;21.00;68.50
27016;DHT22;14557;0.000;0.000;2023-03-31T12:24:50;20.90;67.60
27016;DHT22;14557;0.000;0.000;2023-03-31T12:27:19;20.90;67.30
27016;DHT22;14557;0.000;0.000;2023-03-31T12:29:50;20.90;67.00
27016;DHT22;14557;0.000;0.000;2023-03-31T12:32:21;20.90;66.60
27016;DHT22;14557;0.000;0.000;2023-03-31T12:34:50;20.90;66.60
27016;DHT22;14557;0.000;0.000;2023-03-31T12:52:54;20.90;66.00
27016;DHT22;14557;0.000;0.000;2023-03-31T12:55:32;20.80;65.90
27016;DHT22;14557;0.000;0.000;2023-03-31T13:01:01;20.90;67.00
27016;DHT22;14557;0.000;0.000;2023-03-31T13:08:51;20.80;65.70
27016;DHT22;14557;0.000;0.000;2023-03-31T13:11:17;20.80;65.50
27016;DHT22;14557;0.000;0.000;2023-03-31T13:14:06;20.80;65.40
27016;DHT22;14557;0.000;0.000;2023-03-31T13:16:30;20.80;65.20
27016;DHT22;14557;0.000;0.000;2023-03-31T13:18:56;20.80;65.60
27016;DHT22;14557;0.000;0.000;2023-03-31T13:21:22;20.80;65.40
27016;DHT22;14557;0.000;0.000;2023-03-31T13:23:48;20.80;65.10
27016;DHT22;14557;0.000;0.000;2023-03-31T13:34:22;20.80;65.00
27016;DHT22;14557;0.000;0.000;2023-03-31T13:47:21;20.80;64.00
27016;DHT22;14557;0.000;0.000;2023-03-31T13:50:13;20.80;64.20
27016;DHT22;14557;0.000;0.000;2023-03-31T13:55:17;20.80;63.90
27016;DHT22;14557;0.000;0.000;2023-03-31T14:00:33;20.70;63.60
27016;DHT22;14557;0.000;0.000;2023-03-31T14:03:09;20.70;63.60
27016;DHT22;14557;0.000;0.000;2023-03-31T14:05:39;20.70;63.60
27016;DHT22;14557;0.000;0.000;2023-03-31T14:08:17;20.70;63.20
27016;DHT22;14557;0.000;0.000;2023-03-31T14:10:44;20.70;63.40
27016;DHT22;14557;0.000;0.000;2023-03-31T14:15:37;20.70;63.40
27016;DHT22;14557;0.000;0.000;2023-03-31T14:18:03;20.70;63.50
27016;DHT22;14557;0.000;0.000;2023-03-31T14:36:34;20.80;66.90
27016;DHT22;14557;0.000;0.000;2023-03-31T14:39:03;20.80;66.00
27016;DHT22;14557;0.000;0.000;2023-03-31T14:41:29;20.80;67.90
27016;DHT22;14557;0.000;0.000;2023-03-31T14:43:55;20.80;67.30
27016;DHT22;14557;0.000;0.000;2023-03-31T14:46:21;20.80;66.50
27016;DHT22;14557;0.000;0.000;2023-03-31T14:48:48;20.80;66.40
27016;DHT22;14557;0.000;0.000;2023-03-31T14:51:15;20.80;66.00
27016;DHT22;14557;0.000;0.000;2023-03-31T14:53:41;20.70;65.50
27016;DHT22;14557;0.000;0.000;2023-03-31T14:56:17;20.70;65.40
27016;DHT22;14557;0.000;0.000;2023-03-31T14:58:46;20.70;65.10
27016;DHT22;14557;0.000;0.000;2023-03-31T15:01:17;20.70;65.00
27016;DHT22;14557;0.000;0.000;2023-03-31T15:03:43;20.70;64.90
27016;DHT22;14557;0.000;0.000;2023-03-31T15:06:09;20.70;64.60
27016;DHT22;14557;0.000;0.000;2023-03-31T15:08:35;20.70;64.50
27016;DHT22;14557;0.000;0.000;2023-03-31T15:11:03;20.70;64.30
27016;DHT22;14557;0.000;0.000;2023-03-31T15:15:55;20.70;64.30
27016;DHT22;14557;0.000;0.000;2023-03-31T15:18:20;20.70;64.20
27016;DHT22;14557;0.000;0.000;2023-03-31T15:20:46;20.70;64.10
27016;DHT22;14557;0.000;0.000;2023-03-31T15:23:21;20.70;63.80
27016;DHT22;14557;0.000;0.000;2023-03-31T15:25:53;20.70;64.20
27016;DHT22;14557;0.000;0.000;2023-03-31T15:28:20;20.70;63.60
27016;DHT22;14557;0.000;0.000;2023-03-31T15:30:47;20.70;63.90
27016;DHT22;14557;0.000;0.000;2023-03-31T15:33:32;20.70;63.80
27016;DHT22;14557;0.000;0.000;2023-03-31T15:36:01;20.70;63.60
27016;DHT22;14557;0.000;0.000;2023-03-31T15:38:27;20.70;64.10
27016;DHT22;14557;0.000;0.000;2023-03-31T15:40:54;20.70;64.10
27016;DHT22;14557;0.000;0.000;2023-03-31T15:43:28;20.70;64.60
27016;DHT22;14557;0.000;0.000;2023-03-31T15:45:55;20.70;64.40
27016;DHT22;14557;0.000;0.000;2023-03-31T15:48:27;20.70;64.40
27016;DHT22;14557;0.000;0.000;2023-03-31T15:50:57;20.80;64.50
27016;DHT22;14557;0.000;0.000;2023-03-31T15:53:31;20.70;64.50
27016;DHT22;14557;0.000;0.000;2023-03-31T15:56:00;20.70;64.80
27016;DHT22;14557;0.000;0.000;2023-03-31T16:01:32;20.70;65.60
27016;DHT22;14557;0.000;0.000;2023-03-31T16:03:59;20.80;66.00
27016;DHT22;14557;0.000;0.000;2023-03-31T16:09:01;20.80;66.20
27016;DHT22;14557;0.000;0.000;2023-03-31T16:11:39;20.80;66.10
27016;DHT22;14557;0.000;0.000;2023-03-31T16:14:10;20.80;66.20
27016;DHT22;14557;0.000;0.000;2023-03-31T16:16:37;20.80;66.20
27016;DHT22;14557;0.000;0.000;2023-03-31T16:19:04;20.80;66.80
27016;DHT22;14557;0.000;0.000;2023-03-31T16:21:43;20.80;66.30
27016;DHT22;14557;0.000;0.000;2023-03-31T16:24:11;20.80;66.00
27016;DHT22;14557;0.000;0.000;2023-03-31T16:26:37;20.80;66.60
27016;DHT22;14557;0.000;0.000;2023-03-31T16:29:03;20.80;66.10
27016;DHT22;14557;0.000;0.000;2023-03-31T16:33:55;20.80;68.10
27016;DHT22;14557;0.000;0.000;2023-03-31T16:36:21;20.80;71.90
27016;DHT22;14557;0.000;0.000;2023-03-31T16:38:47;20.80;73.70
27016;DHT22;14557;0.000;0.000;2023-03-31T16:41:15;20.90;73.70
27016;DHT22;14557;0.000;0.000;2023-03-31T16:43:43;20.90;72.60
27016;DHT22;14557;0.000;0.000;2023-03-31T16:46:09;20.90;71.00
27016;DHT22;14557;0.000;0.000;2023-03-31T16:48:34;21.00;67.80
27016;DHT22;14557;0.000;0.000;2023-03-31T16:51:00;21.00;68.80
27016;DHT22;14557;0.000;0.000;2023-03-31T16:53:27;21.00;69.40
27016;DHT22;14557;0.000;0.000;2023-03-31T16:55:53;21.10;69.90
27016;DHT22;14557;0.000;0.000;2023-03-31T16:58:19;21.10;69.50
27016;DHT22;14557;0.000;0.000;2023-03-31T17:00:45;21.20;68.80
27016;DHT22;14557;0.000;0.000;2023-03-31T17:03:11;21.50;66.00
27016;DHT22;14557;0.000;0.000;2023-03-31T17:05:38;21.60;63.80
27016;DHT22;14557;0.000;0.000;2023-03-31T17:08:05;21.60;63.00
27016;DHT22;14557;0.000;0.000;2023-03-31T17:10:33;21.70;62.50
27016;DHT22;14557;0.000;0.000;2023-03-31T17:12:58;21.80;61.90
27016;DHT22;14557;0.000;0.000;2023-03-31T17:15:24;21.90;61.70
27016;DHT22;14557;0.000;0.000;2023-03-31T17:17:50;21.90;66.00
27016;DHT22;14557;0.000;0.000;2023-03-31T17:20:15;22.00;64.30
27016;DHT22;14557;0.000;0.000;2023-03-31T17:22:41;22.20;64.20
27016;DHT22;14557;0.000;0.000;2023-03-31T17:25:07;22.40;63.30
27016;DHT22;14557;0.000;0.000;2023-03-31T17:27:33;22.50;62.40
27016;DHT22;14557;0.000;0.000;2023-03-31T17:29:58;22.60;61.90
27016;DHT22;14557;0.000;0.000;2023-03-31T17:32:24;22.70;61.20
27016;DHT22;14557;0.000;0.000;2023-03-31T17:34:50;23.00;59.80
27016;DHT22;14557;0.000;0.000;2023-03-31T17:37:16;23.00;59.40
27016;DHT22;14557;0.000;0.000;2023-03-31T17:39:42;23.30;58.70
27016;DHT22;14557;0.000;0.000;2023-03-31T17:42:11;23.40;58.10
27016;DHT22;14557;0.000;0.000;2023-03-31T17:44:37;23.40;57.70
27016;DHT22;14557;0.000;0.000;2023-03-31T17:47:03;23.50;57.50
27016;DHT22;14557;0.000;0.000;2023-03-31T17:49:28;23.50;57.20
27016;DHT22;14557;0.000;0.000;2023-03-31T17:51:54;23.60;56.90
27016;DHT22;14557;0.000;0.000;2023-03-31T17:54:20;23.80;56.70
27016;DHT22;14557;0.000;0.000;2023-03-31T17:56:45;23.70;56.40
27016;DHT22;14557;0.000;0.000;2023-03-31T17:59:14;23.90;56.40
27016;DHT22;14557;0.000;0.000;2023-03-31T18:01:40;23.70;56.30
27016;DHT22;14557;0.000;0.000;2023-03-31T18:04:06;23.60;56.40
27016;DHT22;14557;0.000;0.000;2023-03-31T18:06:32;23.40;56.70
27016;DHT22;14557;0.000;0.000;2023-03-31T18:08:57;23.30;56.70
27016;DHT22;14557;0.000;0.000;2023-03-31T18:11:23;23.20;57.00
27016;DHT22;14557;0.000;0.000;2023-03-31T18:13:49;23.10;57.20
27016;DHT22;14557;0.000;0.000;2023-03-31T18:16:15;23.10;58.10
27016;DHT22;14557;0.000;0.000;2023-03-31T18:18:41;23.10;58.40
27016;DHT22;14557;0.000;0.000;2023-03-31T18:21:07;23.10;59.10
27016;DHT22;14557;0.000;0.000;2023-03-31T18:23:34;23.00;59.60
27016;DHT22;14557;0.000;0.000;2023-03-31T18:25:59;23.00;60.00
27016;DHT22;14557;0.000;0.000;2023-03-31T18:28:25;23.10;60.00
27016;DHT22;14557;0.000;0.000;2023-03-31T18:30:51;23.00;59.70
27016;DHT22;14557;0.000;0.000;2023-03-31T18:33:17;23.10;60.00
27016;DHT22;14557;0.000;0.000;2023-03-31T18:35:44;23.10;60.10
27016;DHT22;14557;0.000;0.000;2023-03-31T18:38:11;23.10;59.50
27016;DHT22;14557;0.000;0.000;2023-03-31T18:40:36;23.10;59.20
27016;DHT22;14557;0.000;0.000;2023-03-31T18:43:02;23.20;59.20